Time;durP1;ratioP1;P1;durP2;ratioP2;P2;SDS_P1;SDS_P2;PMS_P1;PMS_P2;Temp;Humidity;BMP_temperature;BMP_pressure;BME280_temperature;BME280_humidity;BME280_pressure;Samples;Min_cycle;Max_cycle;Signal;HPM_P1;HPM_P2
2023/06/19 00:01:44;;;;;;;1999.90;999.90;;;18.40;61.60;;;;;;5033653;28;20026;-89
2023/06/19 00:04:10;;;;;;;1999.90;999.90;;;18.30;62.40;;;;;;5036181;28;20033;-88
2023/06/19 00:06:36;;;;;;;1999.90;999.90;;;18.40;62.20;;;;;;5049387;28;20485;-89
2023/06/19 00:09:02;;;;;;;1999.90;999.90;;;18.50;60.00;;;;;;5038007;28;20115;-89
2023/06/19 00:11:28;;;;;;;1999.90;999.90;;;18.60;59.80;;;;;;5035914;28;20099;-89
2023/06/19 00:13:54;;;;;;;1999.90;999.90;;;18.80;59.20;;;;;;5037338;28;20072;-89
2023/06/19 00:16:20;;;;;;;1999.90;999.90;;;18.80;58.80;;;;;;5036357;28;20057;-89
2023/06/19 00:18:46;;;;;;;1999.90;999.90;;;18.80;60.20;;;;;;5032514;28;20029;-88
2023/06/19 00:21:12;;;;;;;1999.90;999.90;;;18.70;60.40;;;;;;5034810;28;20056;-88
2023/06/19 00:23:37;;;;;;;1999.90;999.90;;;18.70;61.90;;;;;;5040061;28;20484;-89
2023/06/19 00:26:03;;;;;;;1999.90;999.90;;;18.70;59.80;;;;;;5036436;28;20045;-89
2023/06/19 00:28:30;;;;;;;1999.90;999.90;;;18.70;59.90;;;;;;5035667;28;20881;-88
2023/06/19 00:30:56;;;;;;;1999.90;999.90;;;18.80;59.50;;;;;;5018554;28;20034;-88
2023/06/19 00:33:22;;;;;;;1999.90;999.90;;;18.70;60.80;;;;;;5035583;28;20036;-89
2023/06/19 00:35:50;;;;;;;1999.90;999.90;;;18.70;59.40;;;;;;5036818;28;20512;-88
2023/06/19 00:38:16;;;;;;;1999.90;999.90;;;18.80;60.00;;;;;;5030187;28;20041;-90
2023/06/19 00:40:41;;;;;;;1999.90;999.90;;;18.80;60.50;;;;;;5035405;28;20059;-89
2023/06/19 00:43:07;;;;;;;1999.90;999.90;;;18.70;60.90;;;;;;5034147;28;20564;-88
2023/06/19 00:45:33;;;;;;;1999.90;999.90;;;18.60;61.30;;;;;;5014094;28;20041;-89
2023/06/19 00:48:00;;;;;;;1999.90;999.90;;;18.60;61.50;;;;;;5037901;28;20033;-89
2023/06/19 00:50:29;;;;;;;1999.90;999.90;;;18.60;61.10;;;;;;5034216;28;20032;-88
2023/06/19 00:52:55;;;;;;;1999.90;999.90;;;18.60;61.00;;;;;;5035215;28;20127;-88
2023/06/19 00:55:21;;;;;;;1999.90;999.90;;;18.60;60.90;;;;;;5035554;28;20021;-88
2023/06/19 00:57:48;;;;;;;1999.90;999.90;;;18.60;60.80;;;;;;5037828;28;20060;-88
2023/06/19 01:00:14;;;;;;;1999.90;999.90;;;18.60;60.60;;;;;;5037655;28;20424;-88
2023/06/19 01:02:39;;;;;;;1999.90;999.90;;;18.70;60.60;;;;;;5037377;28;20088;-89
2023/06/19 01:05:05;;;;;;;1999.90;999.90;;;18.70;59.90;;;;;;5036476;28;20395;-89
2023/06/19 01:07:52;;;;;;;1999.90;999.90;;;18.80;59.40;;;;;;5040959;28;20029;-89
2023/06/19 01:10:27;;;;;;;1999.90;999.90;;;18.70;59.40;;;;;;5037354;28;20103;-89
2023/06/19 01:13:02;;;;;;;1999.90;999.90;;;18.80;59.70;;;;;;5042065;28;20504;-88
2023/06/19 01:15:28;;;;;;;1999.90;999.90;;;18.80;59.90;;;;;;5036440;28;20033;-89
2023/06/19 01:17:57;;;;;;;1999.90;999.90;;;18.70;60.20;;;;;;5023269;28;20033;-88
2023/06/19 01:20:23;;;;;;;1999.90;999.90;;;18.80;59.70;;;;;;5042541;28;20088;-89
2023/06/19 01:22:48;;;;;;;1999.90;999.90;;;18.80;60.10;;;;;;5043346;28;20029;-88
2023/06/19 01:25:14;;;;;;;1999.90;999.90;;;18.70;59.60;;;;;;5053494;28;20264;-88
2023/06/19 01:27:42;;;;;;;1999.90;999.90;;;18.80;60.10;;;;;;5041195;28;20025;-88
2023/06/19 01:30:10;;;;;;;1999.90;999.90;;;18.70;60.60;;;;;;5044287;28;20028;-89
2023/06/19 01:32:41;;;;;;;1999.90;999.90;;;18.70;60.00;;;;;;5034420;28;20032;-89
2023/06/19 01:35:09;;;;;;;1999.90;999.90;;;18.70;59.80;;;;;;5042595;28;20060;-89
2023/06/19 01:37:38;;;;;;;1999.90;999.90;;;18.80;60.40;;;;;;5038614;28;20056;-88
2023/06/19 01:40:09;;;;;;;1999.90;999.90;;;18.70;61.00;;;;;;5046120;28;20047;-88
2023/06/19 01:42:37;;;;;;;1999.90;999.90;;;18.70;60.40;;;;;;5033808;28;20103;-89
2023/06/19 01:45:04;;;;;;;1999.90;999.90;;;18.70;60.00;;;;;;5038455;28;20033;-88
2023/06/19 01:47:30;;;;;;;1999.90;999.90;;;18.60;60.60;;;;;;5023421;28;20055;-88
2023/06/19 01:49:56;;;;;;;1999.90;999.90;;;18.60;60.80;;;;;;5040263;28;20469;-89
2023/06/19 01:52:22;;;;;;;1999.90;999.90;;;18.60;60.80;;;;;;5035641;28;20025;-89
2023/06/19 01:54:47;;;;;;;1999.90;999.90;;;18.60;60.90;;;;;;5057808;28;20468;-90
2023/06/19 01:57:13;;;;;;;1999.90;999.90;;;18.60;61.00;;;;;;5033287;28;20033;-88
2023/06/19 01:59:38;;;;;;;1999.90;999.90;;;18.60;61.50;;;;;;5031686;28;20136;-89
2023/06/19 02:02:06;;;;;;;1999.90;999.90;;;18.60;61.70;;;;;;5028786;28;20112;-89
2023/06/19 02:04:32;;;;;;;1999.90;999.90;;;18.60;61.20;;;;;;5037177;28;20037;-91
2023/06/19 02:06:58;;;;;;;1999.90;999.90;;;18.60;61.00;;;;;;5035864;28;20036;-89
2023/06/19 02:09:23;;;;;;;1999.90;999.90;;;18.50;62.60;;;;;;5033584;28;20033;-88
2023/06/19 02:11:49;;;;;;;1999.90;999.90;;;18.30;62.90;;;;;;5036509;28;20156;-88
2023/06/19 02:14:15;;;;;;;1999.90;999.90;;;18.40;62.50;;;;;;5032260;28;20056;-89
2023/06/19 02:16:43;;;;;;;1999.90;999.90;;;18.30;62.90;;;;;;5035263;28;20033;-88
2023/06/19 02:19:11;;;;;;;1999.90;999.90;;;18.20;63.50;;;;;;5053321;28;20029;-88
2023/06/19 02:21:37;;;;;;;1999.90;999.90;;;18.30;62.80;;;;;;5032585;28;20160;-89
2023/06/19 02:24:04;;;;;;;1999.90;999.90;;;18.30;63.00;;;;;;5020272;28;20033;-88
2023/06/19 02:26:29;;;;;;;1999.90;999.90;;;18.30;62.90;;;;;;5034260;28;20029;-89
2023/06/19 02:28:56;;;;;;;1999.90;999.90;;;18.30;63.30;;;;;;5033970;28;20028;-89
2023/06/19 02:31:22;;;;;;;1999.90;999.90;;;18.40;63.00;;;;;;5032810;28;20113;-89
2023/06/19 02:33:48;;;;;;;1999.90;999.90;;;18.40;62.80;;;;;;5030337;28;20076;-89
2023/06/19 02:36:19;;;;;;;1999.90;999.90;;;18.40;62.70;;;;;;5029988;28;20053;-88
2023/06/19 02:38:48;;;;;;;1999.90;999.90;;;18.40;62.90;;;;;;5035445;28;20044;-88
2023/06/19 02:41:13;;;;;;;1999.90;999.90;;;18.40;62.50;;;;;;5029171;28;20613;-88
2023/06/19 02:43:43;;;;;;;1999.90;999.90;;;18.40;62.40;;;;;;5036273;28;20528;-89
2023/06/19 02:46:08;;;;;;;1999.90;999.90;;;18.30;62.20;;;;;;5033932;28;20045;-89
2023/06/19 02:48:34;;;;;;;1999.90;999.90;;;18.30;62.10;;;;;;5029446;28;20022;-89
2023/06/19 02:51:00;;;;;;;1999.90;999.90;;;18.40;61.90;;;;;;5035272;28;20401;-91
2023/06/19 02:53:26;;;;;;;1999.90;999.90;;;18.30;61.60;;;;;;5031463;28;20032;-88
2023/06/19 02:55:51;;;;;;;1999.90;999.90;;;18.20;61.90;;;;;;5020950;28;20499;-89
2023/06/19 02:58:17;;;;;;;1999.90;999.90;;;18.20;62.50;;;;;;5033084;28;20096;-89
2023/06/19 03:00:43;;;;;;;1999.90;999.90;;;18.20;62.30;;;;;;5034162;28;20470;-88
2023/06/19 03:03:09;;;;;;;1999.90;999.90;;;18.20;62.60;;;;;;5035284;28;20040;-89
2023/06/19 03:05:34;;;;;;;1999.90;999.90;;;18.10;62.30;;;;;;5034039;28;20024;-89
2023/06/19 03:08:00;;;;;;;1999.90;999.90;;;18.20;62.10;;;;;;5017555;28;20061;-88
2023/06/19 03:10:26;;;;;;;1999.90;999.90;;;18.20;62.50;;;;;;5031935;28;20516;-90
2023/06/19 03:12:51;;;;;;;1999.90;999.90;;;18.30;61.90;;;;;;5013054;28;20106;-88
2023/06/19 03:15:17;;;;;;;1999.90;999.90;;;18.30;61.70;;;;;;5052281;28;20160;-88
2023/06/19 03:17:43;;;;;;;1999.90;999.90;;;18.30;62.00;;;;;;5036901;28;20033;-89
2023/06/19 03:20:11;;;;;;;1999.90;999.90;;;18.40;61.60;;;;;;5032691;28;20095;-89
2023/06/19 03:22:39;;;;;;;1999.90;999.90;;;18.40;61.80;;;;;;5030660;28;20048;-89
2023/06/19 03:25:06;;;;;;;1999.90;999.90;;;18.40;61.90;;;;;;5031717;28;20035;-89
2023/06/19 03:27:31;;;;;;;1999.90;999.90;;;18.30;62.20;;;;;;5036631;28;20576;-89
2023/06/19 03:29:57;;;;;;;1999.90;999.90;;;18.40;62.00;;;;;;5021905;28;20132;-89
2023/06/19 03:32:23;;;;;;;1999.90;999.90;;;18.40;62.20;;;;;;5019142;28;20033;-89
2023/06/19 03:34:48;;;;;;;1999.90;999.90;;;18.20;63.80;;;;;;5038993;28;20033;-90
2023/06/19 03:37:14;;;;;;;1999.90;999.90;;;18.00;64.20;;;;;;5038529;28;20029;-89
2023/06/19 03:39:40;;;;;;;1999.90;999.90;;;17.90;65.10;;;;;;5034375;28;20033;-87
2023/06/19 03:42:06;;;;;;;1999.90;999.90;;;17.80;65.40;;;;;;5037148;28;20024;-89
2023/06/19 03:44:31;;;;;;;1999.90;999.90;;;17.80;65.50;;;;;;5038077;28;20108;-89
2023/06/19 03:46:57;;;;;;;1999.90;999.90;;;17.80;65.20;;;;;;5041888;28;20021;-89
2023/06/19 03:49:23;;;;;;;1999.90;999.90;;;17.90;64.80;;;;;;5039857;28;20497;-89
2023/06/19 03:51:48;;;;;;;1999.90;999.90;;;17.90;65.00;;;;;;5018804;28;20037;-89
2023/06/19 03:54:14;;;;;;;1999.90;999.90;;;17.90;65.80;;;;;;5037647;28;20037;-89
2023/06/19 03:56:40;;;;;;;1999.90;999.90;;;17.90;65.10;;;;;;5040016;28;20041;-89
2023/06/19 03:59:05;;;;;;;1999.90;999.90;;;17.90;65.30;;;;;;5038680;28;20018;-89
2023/06/19 04:01:31;;;;;;;1999.90;999.90;;;17.90;64.90;;;;;;5034231;28;20026;-89
2023/06/19 04:03:56;;;;;;;1999.90;999.90;;;17.90;65.20;;;;;;5055602;28;20034;-88
2023/06/19 04:06:22;;;;;;;1999.90;999.90;;;18.00;64.80;;;;;;5034330;28;20037;-90
2023/06/19 04:08:48;;;;;;;1999.90;999.90;;;18.00;64.40;;;;;;5032293;28;20128;-90
2023/06/19 04:11:14;;;;;;;1999.90;999.90;;;18.00;65.10;;;;;;5014521;28;20033;-89
2023/06/19 04:13:39;;;;;;;450.52;420.17;;;18.00;65.20;;;;;;5014026;28;20044;-90
2023/06/19 04:16:05;;;;;;;1999.90;999.90;;;17.90;65.60;;;;;;5013868;28;20029;-89
2023/06/19 04:18:30;;;;;;;1999.90;999.90;;;18.00;65.30;;;;;;5031085;28;20740;-89
2023/06/19 04:20:56;;;;;;;1999.90;999.90;;;18.00;65.30;;;;;;5015395;28;20057;-88
2023/06/19 04:23:22;;;;;;;1999.90;999.90;;;18.10;65.40;;;;;;5033029;28;20037;-87
2023/06/19 04:25:47;;;;;;;1999.90;999.90;;;18.10;65.10;;;;;;5037350;28;20052;-87
2023/06/19 04:28:13;;;;;;;1999.90;999.90;;;18.10;65.30;;;;;;5031346;28;20041;-86
2023/06/19 04:30:39;;;;;;;1999.90;999.90;;;18.10;65.00;;;;;;5017852;28;20028;-85
2023/06/19 04:33:05;;;;;;;1601.75;844.50;;;18.10;65.00;;;;;;5033131;28;20103;-86
2023/06/19 04:35:31;;;;;;;1586.35;830.10;;;18.20;65.40;;;;;;5033920;28;20029;-85
2023/06/19 04:38:00;;;;;;;481.42;448.55;;;18.20;65.50;;;;;;5035448;28;20032;-85
2023/06/19 04:40:26;;;;;;;1999.90;999.90;;;18.20;66.40;;;;;;5012215;28;20029;-84
2023/06/19 04:42:53;;;;;;;1999.90;999.90;;;18.30;65.40;;;;;;5031473;28;20037;-82
2023/06/19 04:45:19;;;;;;;1999.90;999.90;;;18.40;65.00;;;;;;5036287;28;20059;-83
2023/06/19 04:47:45;;;;;;;1999.90;999.90;;;18.50;64.60;;;;;;5035379;28;20485;-84
2023/06/19 04:50:10;;;;;;;903.92;623.72;;;18.50;65.30;;;;;;5032603;28;21585;-84
2023/06/19 04:52:37;;;;;;;1999.90;999.90;;;18.50;65.10;;;;;;5034463;28;20017;-83
2023/06/19 04:55:05;;;;;;;1999.90;999.90;;;18.60;64.40;;;;;;5034574;28;20108;-84
2023/06/19 04:57:30;;;;;;;1999.90;999.90;;;18.60;64.60;;;;;;5046464;28;20038;-84
2023/06/19 04:59:56;;;;;;;1999.90;999.90;;;18.60;65.00;;;;;;5027784;28;20030;-84
2023/06/19 05:02:23;;;;;;;1999.90;999.90;;;18.70;64.40;;;;;;5017017;28;20033;-83
2023/06/19 05:04:49;;;;;;;1999.90;999.90;;;18.80;64.10;;;;;;5029083;28;20041;-83
2023/06/19 05:07:17;;;;;;;1999.90;999.90;;;18.90;64.20;;;;;;5035434;28;20038;-83
2023/06/19 05:09:43;;;;;;;1999.90;999.90;;;18.90;65.10;;;;;;5031522;28;20033;-83
2023/06/19 05:12:10;;;;;;;1999.90;999.90;;;18.90;64.60;;;;;;5037787;28;20033;-83
2023/06/19 05:14:35;;;;;;;1999.90;999.90;;;19.00;65.00;;;;;;5048626;28;20548;-83
2023/06/19 05:17:01;;;;;;;1999.90;999.90;;;19.10;64.60;;;;;;5033299;28;20159;-85
2023/06/19 05:19:26;;;;;;;1999.90;999.90;;;19.20;63.50;;;;;;5050737;28;20036;-83
2023/06/19 05:21:52;;;;;;;1999.90;999.90;;;19.30;63.20;;;;;;5046489;28;20131;-83
2023/06/19 05:24:18;;;;;;;1999.90;999.90;;;19.40;64.30;;;;;;5013689;28;20079;-84
2023/06/19 05:26:43;;;;;;;1999.90;999.90;;;19.30;64.60;;;;;;5030547;28;20112;-84
2023/06/19 05:29:09;;;;;;;1999.90;999.90;;;19.30;64.70;;;;;;5033116;28;20454;-84
2023/06/19 05:31:35;;;;;;;1614.13;855.45;;;19.20;63.70;;;;;;5030766;28;20040;-85
2023/06/19 05:34:01;;;;;;;1999.90;999.90;;;19.30;64.80;;;;;;5020410;28;20456;-90
2023/06/19 05:36:26;;;;;;;1999.90;999.90;;;19.30;64.20;;;;;;5032218;28;20037;-85
2023/06/19 05:38:52;;;;;;;1999.90;999.90;;;19.40;64.00;;;;;;5014921;28;20026;-84
2023/06/19 05:41:17;;;;;;;1999.90;999.90;;;19.50;62.80;;;;;;5030824;28;20056;-86
2023/06/19 05:43:43;;;;;;;1999.90;999.90;;;19.50;62.70;;;;;;5016220;28;20036;-85
2023/06/19 05:46:09;;;;;;;1999.90;999.90;;;19.80;62.30;;;;;;5049563;28;20034;-84
2023/06/19 05:48:34;;;;;;;1999.90;999.90;;;19.80;62.40;;;;;;5033117;28;20025;-85
2023/06/19 05:51:00;;;;;;;1999.90;999.90;;;19.90;63.00;;;;;;5030427;28;20067;-87
2023/06/19 05:53:26;;;;;;;1999.90;999.90;;;20.10;61.00;;;;;;5030873;28;20032;-86
2023/06/19 05:55:51;;;;;;;1999.90;999.90;;;20.30;61.00;;;;;;5031153;28;20401;-85
2023/06/19 05:58:21;;;;;;;1999.90;999.90;;;20.40;60.00;;;;;;5050457;28;20033;-84
2023/06/19 06:00:47;;;;;;;1999.90;999.90;;;20.50;60.70;;;;;;5032720;28;20029;-82
2023/06/19 06:03:13;;;;;;;1999.90;999.90;;;20.40;60.90;;;;;;5016932;28;20082;-82
2023/06/19 06:05:39;;;;;;;1999.90;999.90;;;20.40;60.90;;;;;;5028675;28;20602;-82
2023/06/19 06:08:04;;;;;;;1999.90;999.90;;;20.60;61.10;;;;;;5034267;28;20052;-80
2023/06/19 06:10:30;;;;;;;1999.90;999.90;;;20.60;60.30;;;;;;5033072;28;20061;-83
2023/06/19 06:12:56;;;;;;;1999.90;999.90;;;20.80;60.00;;;;;;5032160;28;20056;-82
2023/06/19 06:15:21;;;;;;;1999.90;999.90;;;20.80;59.10;;;;;;5031676;28;20124;-81
2023/06/19 06:17:47;;;;;;;1999.90;999.90;;;20.90;60.30;;;;;;5034255;28;20041;-81
2023/06/19 06:20:13;;;;;;;1999.90;999.90;;;20.80;59.70;;;;;;5028989;28;20091;-82
2023/06/19 06:22:39;;;;;;;1999.90;999.90;;;20.80;60.40;;;;;;5037758;28;20466;-81
2023/06/19 06:25:06;;;;;;;1999.90;999.90;;;20.80;61.00;;;;;;5029476;28;20060;-82
2023/06/19 06:27:31;;;;;;;1999.90;999.90;;;20.70;60.80;;;;;;5045938;28;20025;-81
2023/06/19 06:29:57;;;;;;;1999.90;999.90;;;20.80;60.70;;;;;;5026969;28;20064;-81
2023/06/19 06:32:23;;;;;;;1999.90;999.90;;;21.00;61.30;;;;;;5029683;28;20026;-82
2023/06/19 06:34:48;;;;;;;1999.90;999.90;;;21.00;60.60;;;;;;5042799;28;20030;-81
2023/06/19 06:37:16;;;;;;;1999.90;999.90;;;21.00;60.80;;;;;;5032341;28;20071;-82
2023/06/19 06:39:42;;;;;;;1999.90;999.90;;;21.20;59.70;;;;;;5013036;28;20552;-80
2023/06/19 06:42:07;;;;;;;1999.90;999.90;;;21.30;60.40;;;;;;5012945;28;20148;-82
2023/06/19 06:44:33;;;;;;;1999.90;999.90;;;21.50;60.70;;;;;;5034816;28;20105;-82
2023/06/19 06:46:59;;;;;;;1999.90;999.90;;;21.40;60.80;;;;;;5030654;28;20030;-82
2023/06/19 06:49:24;;;;;;;1999.90;999.90;;;21.30;60.60;;;;;;5031101;28;20497;-82
2023/06/19 06:51:50;;;;;;;1999.90;999.90;;;21.20;60.80;;;;;;5031794;28;20037;-82
2023/06/19 06:54:15;;;;;;;1999.90;999.90;;;21.00;60.30;;;;;;5033219;28;20064;-81
2023/06/19 06:56:41;;;;;;;1999.90;999.90;;;21.10;61.50;;;;;;5030986;28;20059;-81
2023/06/19 06:59:07;;;;;;;1999.90;999.90;;;21.20;60.20;;;;;;5018085;28;20029;-81
2023/06/19 07:01:32;;;;;;;1999.90;999.90;;;21.00;62.00;;;;;;5033281;28;20099;-86
2023/06/19 07:03:58;;;;;;;1999.90;999.90;;;21.10;59.80;;;;;;5030538;28;20445;-84
2023/06/19 07:06:24;;;;;;;1999.90;999.90;;;21.30;60.90;;;;;;5036811;28;20042;-84
2023/06/19 07:08:49;;;;;;;1999.90;999.90;;;21.40;59.50;;;;;;5033604;28;20021;-84
2023/06/19 07:11:15;;;;;;;1999.90;999.90;;;21.40;59.90;;;;;;5035124;28;20493;-85
2023/06/19 07:13:41;;;;;;;1999.90;999.90;;;21.50;59.70;;;;;;5035992;28;20041;-84
2023/06/19 07:16:07;;;;;;;1999.90;999.90;;;21.30;60.10;;;;;;5038069;28;20078;-83
2023/06/19 07:18:38;;;;;;;1999.90;999.90;;;21.20;60.50;;;;;;5033516;28;20037;-83
2023/06/19 07:21:15;;;;;;;1999.90;999.90;;;21.20;62.10;;;;;;5033832;28;20049;-83
2023/06/19 07:23:42;;;;;;;1999.90;999.90;;;20.90;61.90;;;;;;5034994;28;20037;-85
2023/06/19 07:26:09;;;;;;;1999.90;999.90;;;20.70;63.50;;;;;;5032284;28;20108;-83
2023/06/19 07:28:36;;;;;;;1999.90;999.90;;;20.70;65.10;;;;;;5021378;28;20195;-84
2023/06/19 07:31:02;;;;;;;1999.90;999.90;;;20.60;64.00;;;;;;5034009;28;20048;-84
2023/06/19 07:33:29;;;;;;;1999.90;999.90;;;20.60;64.60;;;;;;5032206;28;20155;-83
2023/06/19 07:35:55;;;;;;;1999.90;999.90;;;20.60;63.90;;;;;;5030199;28;20033;-85
2023/06/19 07:38:21;;;;;;;1999.90;999.90;;;20.60;63.50;;;;;;5033221;28;20029;-81
2023/06/19 07:40:46;;;;;;;1999.90;999.90;;;20.40;64.50;;;;;;5034176;28;20070;-80
2023/06/19 07:43:12;;;;;;;1999.90;999.90;;;20.50;63.70;;;;;;5015664;28;20486;-80
2023/06/19 07:45:38;;;;;;;1999.90;999.90;;;20.80;63.80;;;;;;5017608;28;20044;-84
2023/06/19 07:48:04;;;;;;;1999.90;999.90;;;20.90;64.20;;;;;;5030913;28;20034;-89
2023/06/19 07:50:29;;;;;;;1999.90;999.90;;;21.00;64.10;;;;;;5032751;28;20105;-87
2023/06/19 07:52:55;;;;;;;1999.90;999.90;;;21.20;63.80;;;;;;5036410;28;20031;-86
2023/06/19 07:55:21;;;;;;;1999.90;999.90;;;21.20;61.90;;;;;;5033148;28;20041;-85
2023/06/19 07:57:46;;;;;;;1999.90;999.90;;;21.10;62.70;;;;;;5029228;28;20042;-86
2023/06/19 08:00:13;;;;;;;1999.90;999.90;;;21.10;63.30;;;;;;5029809;28;20021;-92
2023/06/19 08:02:40;;;;;;;1999.90;999.90;;;21.10;63.50;;;;;;5046453;28;20029;-86
2023/06/19 08:05:08;;;;;;;1999.90;999.90;;;21.00;62.90;;;;;;4995045;28;20033;-86
2023/06/19 08:07:34;;;;;;;1999.90;999.90;;;21.00;64.00;;;;;;5023840;28;20029;-86
2023/06/19 08:10:00;;;;;;;1582.75;826.10;;;21.10;63.60;;;;;;5030212;28;20042;-87
2023/06/19 08:12:26;;;;;;;1999.90;999.90;;;21.20;63.70;;;;;;5032332;28;20033;-86
2023/06/19 08:14:51;;;;;;;1999.90;999.90;;;21.40;63.10;;;;;;5033372;28;20022;-86
2023/06/19 08:17:17;;;;;;;285.55;261.75;;;21.20;64.30;;;;;;5018481;28;20053;-87
2023/06/19 08:19:43;;;;;;;1999.90;999.90;;;21.10;64.90;;;;;;5020203;28;20025;-86
2023/06/19 08:22:09;;;;;;;545.00;503.80;;;21.10;64.30;;;;;;5018628;28;20053;-89
2023/06/19 08:24:36;;;;;;;1663.78;901.20;;;21.30;64.30;;;;;;5033410;28;20041;-86
2023/06/19 08:27:02;;;;;;;698.90;647.03;;;21.40;63.30;;;;;;5018695;28;20404;-86
2023/06/19 08:29:28;;;;;;;901.35;835.03;;;21.50;64.80;;;;;;5011446;28;20026;-87
2023/06/19 08:31:53;;;;;;;808.58;749.38;;;21.80;64.80;;;;;;5034912;28;20037;-86
2023/06/19 08:34:19;;;;;;;950.40;882.40;;;21.80;63.90;;;;;;5036415;28;20037;-86
2023/06/19 08:36:45;;;;;;;760.67;705.42;;;21.90;64.30;;;;;;5038510;28;20540;-88
2023/06/19 08:39:11;;;;;;;1999.90;999.90;;;21.70;63.20;;;;;;5031439;28;20548;-85
2023/06/19 08:41:37;;;;;;;454.25;418.52;;;21.60;62.90;;;;;;5032190;28;20088;-86
2023/06/19 08:44:04;;;;;;;497.02;457.85;;;22.00;64.70;;;;;;5067874;28;20112;-85
2023/06/19 08:46:30;;;;;;;628.65;582.65;;;22.60;63.50;;;;;;5035540;28;20036;-86
2023/06/19 08:48:56;;;;;;;1999.90;999.90;;;22.40;60.80;;;;;;5030228;28;20025;-87
2023/06/19 08:51:22;;;;;;;1999.90;999.90;;;22.30;60.90;;;;;;5030560;28;20081;-86
2023/06/19 08:53:52;;;;;;;1999.90;999.90;;;22.30;60.30;;;;;;5031317;28;20327;-87
2023/06/19 08:56:18;;;;;;;527.60;485.88;;;22.40;61.90;;;;;;5031610;28;20432;-86
2023/06/19 08:58:44;;;;;;;424.75;392.05;;;22.90;63.20;;;;;;5034261;28;20037;-88
2023/06/19 09:01:09;;;;;;;1999.90;999.90;;;23.00;61.20;;;;;;5030408;28;20041;-86
2023/06/19 09:03:35;;;;;;;1620.05;859.83;;;23.10;57.00;;;;;;5036077;28;20136;-87
2023/06/19 09:06:07;;;;;;;1999.90;999.90;;;22.80;59.60;;;;;;5032816;28;20496;-85
2023/06/19 09:08:33;;;;;;;1999.90;999.90;;;22.90;59.30;;;;;;5036385;28;20040;-85
2023/06/19 09:11:00;;;;;;;1999.90;999.90;;;23.30;57.40;;;;;;5030086;28;20022;-87
2023/06/19 09:13:29;;;;;;;1999.90;999.90;;;23.80;57.90;;;;;;5009845;28;20025;-87
2023/06/19 09:16:02;;;;;;;1999.90;999.90;;;24.30;54.60;;;;;;5034521;28;20113;-86
2023/06/19 09:18:31;;;;;;;1999.90;999.90;;;24.30;52.90;;;;;;5029802;28;20075;-87
2023/06/19 09:20:57;;;;;;;1999.90;999.90;;;24.60;53.50;;;;;;5033856;28;20038;-87
2023/06/19 09:23:24;;;;;;;1999.90;999.90;;;24.70;53.00;;;;;;5034547;28;20025;-87
2023/06/19 09:25:52;;;;;;;1999.90;999.90;;;24.80;51.40;;;;;;5031168;28;20045;-88
2023/06/19 09:28:28;;;;;;;1999.90;999.90;;;24.90;51.40;;;;;;5034335;28;20033;-90
2023/06/19 09:30:58;;;;;;;1999.90;999.90;;;25.40;52.20;;;;;;5022255;28;20089;-88
2023/06/19 09:33:32;;;;;;;1999.90;999.90;;;25.60;48.70;;;;;;5033601;28;20029;-90
2023/06/19 09:35:59;;;;;;;1999.90;999.90;;;25.90;48.60;;;;;;5032352;28;20029;-89
2023/06/19 09:38:27;;;;;;;1999.90;999.90;;;26.20;47.00;;;;;;5067638;28;20037;-89
2023/06/19 09:40:53;;;;;;;1999.90;999.90;;;25.80;47.00;;;;;;5036119;28;20025;-91
2023/06/19 09:43:24;;;;;;;1999.90;999.90;;;25.60;48.30;;;;;;5039947;28;20497;-90
2023/06/19 09:45:54;;;;;;;1999.90;999.90;;;25.30;47.50;;;;;;5031676;28;20087;-89
2023/06/19 09:48:22;;;;;;;1999.90;999.90;;;25.00;49.90;;;;;;5031013;28;20037;-89
2023/06/19 09:50:53;;;;;;;1999.90;999.90;;;24.90;48.40;;;;;;5034108;28;20036;-90
2023/06/19 09:53:20;;;;;;;1999.90;999.90;;;24.90;51.00;;;;;;5014981;28;20025;-90
2023/06/19 09:55:50;;;;;;;1999.90;999.90;;;24.90;49.50;;;;;;5031838;28;20030;-90
2023/06/19 09:58:20;;;;;;;1999.90;999.90;;;25.30;49.90;;;;;;5036201;28;20103;-90
2023/06/19 10:00:46;;;;;;;1999.90;999.90;;;25.30;48.20;;;;;;5031302;28;20029;-90
2023/06/19 10:03:14;;;;;;;1999.90;999.90;;;25.60;49.00;;;;;;5020075;28;20088;-89
2023/06/19 10:05:40;;;;;;;1999.90;999.90;;;25.60;44.80;;;;;;5039439;28;20435;-90
2023/06/19 10:08:06;;;;;;;1999.90;999.90;;;26.20;45.10;;;;;;5038154;28;20052;-90
2023/06/19 10:10:34;;;;;;;1999.90;999.90;;;26.70;43.20;;;;;;5037497;28;20052;-91
2023/06/19 10:13:11;;;;;;;1999.90;999.90;;;27.00;43.00;;;;;;5033178;28;20100;-90
2023/06/19 10:15:42;;;;;;;1999.90;999.90;;;27.60;43.70;;;;;;5035301;28;20029;-88
2023/06/19 10:18:12;;;;;;;1999.90;999.90;;;27.70;39.80;;;;;;5036040;28;20041;-91
2023/06/19 10:20:38;;;;;;;;;;;27.30;40.50;;;;;;5018645;28;20550;-91
2023/06/19 10:23:16;;;;;;;1999.90;999.90;;;27.30;39.50;;;;;;5035740;28;19917;-91
2023/06/19 10:25:43;;;;;;;1999.90;999.90;;;27.80;38.50;;;;;;5036068;28;20091;-93
2023/06/19 10:28:24;;;;;;;1999.90;999.90;;;28.10;41.40;;;;;;5015975;28;20506;-90
2023/06/19 10:30:56;;;;;;;1999.90;999.90;;;28.30;40.90;;;;;;5011408;28;20036;-89
2023/06/19 10:33:24;;;;;;;1999.90;999.90;;;28.40;39.70;;;;;;5013991;28;20021;-89
2023/06/19 10:35:50;;;;;;;1999.90;999.90;;;28.80;36.10;;;;;;5033476;28;20216;-90
2023/06/19 10:38:16;;;;;;;1999.90;999.90;;;28.50;35.90;;;;;;5029913;28;20455;-90
2023/06/19 10:40:44;;;;;;;1999.90;999.90;;;28.50;36.20;;;;;;5037369;28;20112;-91
2023/06/19 10:43:10;;;;;;;1999.90;999.90;;;28.40;34.80;;;;;;5016960;28;20589;-92
2023/06/19 10:45:35;;;;;;;1999.90;999.90;;;28.80;35.20;;;;;;5015926;28;20030;-90
2023/06/19 10:48:03;;;;;;;1999.90;999.90;;;29.30;35.70;;;;;;5013745;28;20029;-90
2023/06/19 10:50:28;;;;;;;1999.90;999.90;;;28.60;36.20;;;;;;5033987;28;20037;-89
2023/06/19 10:52:54;;;;;;;1999.90;999.90;;;29.00;36.70;;;;;;5040107;28;20025;-89
2023/06/19 10:55:21;;;;;;;1999.90;999.90;;;29.30;33.80;;;;;;5037892;28;20033;-92
2023/06/19 10:57:48;;;;;;;1999.90;999.90;;;29.70;35.30;;;;;;5037397;28;20106;-89
2023/06/19 11:00:25;;;;;;;1999.90;999.90;;;29.60;32.00;;;;;;5037597;28;20040;-89
2023/06/19 11:02:51;;;;;;;1999.90;999.90;;;29.50;32.90;;;;;;5048799;28;20033;-89
2023/06/19 11:05:20;;;;;;;1999.90;999.90;;;30.30;33.60;;;;;;5033225;28;20047;-86
2023/06/19 11:07:58;;;;;;;1999.90;999.90;;;30.30;30.00;;;;;;5031593;28;20017;-87
2023/06/19 11:10:28;;;;;;;1999.90;999.90;;;31.10;31.80;;;;;;5034167;28;20018;-89
2023/06/19 11:12:56;;;;;;;1999.90;999.90;;;30.90;29.40;;;;;;5035837;28;20026;-89
2023/06/19 11:15:29;;;;;;;1999.90;999.90;;;30.90;29.70;;;;;;5013083;28;20103;-89
2023/06/19 11:17:57;;;;;;;1999.90;999.90;;;31.00;30.80;;;;;;5030348;28;20033;-92
2023/06/19 11:20:24;;;;;;;1999.90;999.90;;;31.40;27.30;;;;;;5029037;28;20509;-88
2023/06/19 11:22:55;;;;;;;1999.90;999.90;;;31.90;28.10;;;;;;5008885;28;20034;-89
2023/06/19 11:25:21;;;;;;;1999.90;999.90;;;32.50;26.80;;;;;;5032163;28;20032;-89
2023/06/19 11:27:51;;;;;;;1999.90;999.90;;;32.70;27.50;;;;;;5033516;28;20029;-89
2023/06/19 11:30:20;;;;;;;1999.90;999.90;;;33.40;27.40;;;;;;5032229;28;20025;-85
2023/06/19 11:32:48;;;;;;;1999.90;999.90;;;33.20;25.90;;;;;;5009581;28;20029;-89
2023/06/19 11:35:16;;;;;;;1999.90;999.90;;;33.50;25.10;;;;;;5029590;28;20072;-89
2023/06/19 11:37:46;;;;;;;1999.90;999.90;;;33.40;25.50;;;;;;5038718;28;20036;-89
2023/06/19 11:40:23;;;;;;;1999.90;999.90;;;33.40;28.50;;;;;;5033437;28;20485;-89
2023/06/19 11:42:51;;;;;;;1999.90;999.90;;;34.10;26.00;;;;;;5018534;28;20037;-88
2023/06/19 11:45:18;;;;;;;1999.90;999.90;;;34.30;27.30;;;;;;5013512;28;20037;-90
2023/06/19 11:47:45;;;;;;;1999.90;999.90;;;34.40;26.60;;;;;;5031270;28;20095;-89
2023/06/19 11:50:13;;;;;;;1999.90;999.90;;;34.70;24.40;;;;;;5035421;28;20049;-89
2023/06/19 11:52:39;;;;;;;1999.90;999.90;;;34.50;24.90;;;;;;5039132;28;20091;-87
2023/06/19 11:55:05;;;;;;;1999.90;999.90;;;34.30;22.40;;;;;;5018632;28;20045;-89
2023/06/19 11:57:32;;;;;;;1999.90;999.90;;;35.10;23.00;;;;;;5031502;28;20136;-86
2023/06/19 11:59:58;;;;;;;1999.90;999.90;;;35.60;24.90;;;;;;5020343;28;20026;-90